CheckWX is a tool to help pilots better visualize weather data.  It is not intended as a substitute for an official pre-flight weather briefing.

05:18:07 UTC

CYYZ METAR
Lester B Pearson International Airport
Toronto, Canada
Current

1 hour ago

CYYZ 200400Z 31004KT 15SM SCT230 M08/M13 A3054 RMK CI3 SLP354
Observed
Feb-20 @ 04:00 UTC
Wind
  • 310° at 4 KTS
Visibility
24,140 meters
Flight Rules
VFR
Cloud Levels
  • Scattered at 23,000' AGL
Temperature
-8°C / 18°F
Dewpoint
-13°C / 9°F
Humidity
68%
Altimeter
30.54" Hg
Pressure
1035.4 hPa
Previous

2 hours ago

CYYZ 200300Z 26003KT 15SM SCT230 M09/M14 A3054 RMK CI3 SLP355
Observed
Feb-20 @ 03:00 UTC
Wind
  • 260° at 3 KTS
Visibility
24,140 meters
Flight Rules
VFR
Cloud Levels
  • Scattered at 23,000' AGL
Temperature
-9°C / 16°F
Dewpoint
-14°C / 7°F
Humidity
67%
Altimeter
30.54" Hg
Pressure
1035.5 hPa
Previous

3 hours ago

CYYZ 200200Z 28003KT 15SM BKN230 M09/M14 A3054 RMK CI5 SLP357
Observed
Feb-20 @ 02:00 UTC
Wind
  • 280° at 3 KTS
Visibility
24,140 meters
Flight Rules
VFR
Cloud Levels
  • Broken at 23,000' AGL
Temperature
-9°C / 16°F
Dewpoint
-14°C / 7°F
Humidity
67%
Altimeter
30.54" Hg
Pressure
1035.7 hPa